^^
Station Historical Data
Daily Summary for December 6, 2017 Units:  Metric    English   Both
« Previous Day
Next Day »
Daily Weekly Monthly Yearly Custom
  High: Low: Average:
Temperature: 12.1 °C -1.6 °C 3.6 °C
Dew Point: 11 °C -8.5 °C -3.6 °C
Humidity: 93 % 39 % 61 %
Wind Speed: 24.5 km/h 0 km/h 6.3 km/h
Wind Gust: 42.6 km/h - -
Wind:- - West
Pressure: 1018.2 hPa 1009.7 hPa -
Precipitation: 0.51 mm    
Historical Graphs
 
 
Tabular Data for December 6, 2017
Time Temperature Dew Point Pressure Wind Wind Speed Wind Gust Humidity Rainfall Rate (Hourly) solar Conditions
00:03 12.1 °C 10.9 °C 1009.7 hPa WSW 4 km/h 11.1 km/h 93 % 0 mm 0.0 W/m2 RA
00:08 12.1 °C 10.9 °C 1009.7 hPa SW 2.1 km/h 13 km/h 93 % 0 mm 0.0 W/m2 RA
00:13 12.1 °C 11 °C 1009.7 hPa WSW 1.4 km/h 13 km/h 93 % 0 mm 0.0 W/m2 BKN
00:18 12.1 °C 11 °C 1009.7 hPa WSW 3.2 km/h 13 km/h 93 % 0 mm 0.0 W/m2 BKN
00:23 12.1 °C 10.9 °C 1009.7 hPa Calm   13 km/h 93 % 0 mm 0.0 W/m2 FEW
00:28 12 °C 10.9 °C 1009.7 hPa Calm   16.7 km/h 93 % 0 mm 0.0 W/m2 FEW
00:33 12 °C 10.9 °C 1009.7 hPa WSW 1.1 km/h 16.7 km/h 93 % 0 mm 0.0 W/m2 FEW
00:38 11.9 °C 10.8 °C 1009.7 hPa Calm   9.3 km/h 93 % 0 mm 0.0 W/m2 FEW
00:43 12 °C 10.9 °C 1009.7 hPa West 3.9 km/h 11.1 km/h 93 % 0 mm 0.0 W/m2 FEW
00:48 12 °C 10.9 °C 1009.7 hPa SW 1 km/h 11.1 km/h 93 % 0 mm 0.0 W/m2 FEW
00:53 12 °C 10.9 °C 1009.7 hPa Calm   11.1 km/h 93 % 0 mm 0.0 W/m2 FEW
00:58 11.9 °C 10.8 °C 1009.7 hPa West 0.5 km/h 9.3 km/h 93 % 0 mm 0.0 W/m2 FEW
01:04 11.7 °C 10.4 °C 1010 hPa WNW 10.5 km/h 40.7 km/h 92 % 0 mm 0.0 W/m2 OVC
01:09 10.9 °C 9.6 °C 1010.4 hPa NNW 10.6 km/h 40.7 km/h 91 % 0 mm 0.0 W/m2 OVC
01:14 10.5 °C 9.1 °C 1011.1 hPa WNW 8.4 km/h 31.5 km/h 91 % 0 mm 0.0 W/m2 OVC
01:15 10.4 °C 9.1 °C 1011.1 hPa WNW 8.9 km/h 31.5 km/h 91 % 0 mm 0.0 W/m2 OVC
01:20 10.1 °C 8.5 °C 1011.4 hPa West 19.6 km/h 37 km/h 90 % 0.25 mm 0.0 W/m2 RA
01:25 9.8 °C 8.3 °C 1011.7 hPa WNW 4.8 km/h 37 km/h 90 % 0.25 mm 0.0 W/m2 RA
01:30 9.3 °C 7.4 °C 1011.1 hPa WNW 6.6 km/h 38.9 km/h 88 % 0.25 mm 0.0 W/m2 OVC
01:35 8.7 °C 6.8 °C 1011.4 hPa WNW 7.6 km/h 38.9 km/h 88 % 0.51 mm 0.0 W/m2 RA
01:40 8.4 °C 6.7 °C 1011.7 hPa WNW 7.9 km/h 31.5 km/h 89 % 0.51 mm 0.0 W/m2 RA
01:45 8.2 °C 6.5 °C 1011.7 hPa WNW 13 km/h 24.1 km/h 89 % 0.51 mm 0.0 W/m2 OVC
01:50 8.1 °C 6.4 °C 1012.1 hPa NW 11.1 km/h 27.8 km/h 89 % 0.51 mm 0.0 W/m2 -RA
01:55 7.9 °C 6.2 °C 1012.1 hPa WNW 8.9 km/h 27.8 km/h 89 % 0.51 mm 0.0 W/m2 -RA
02:00 7.8 °C 5.9 °C 1012.1 hPa West 12.2 km/h 31.5 km/h 88 % 0.51 mm 0.0 W/m2 -RA
02:05 7.8 °C 5.9 °C 1012.1 hPa WSW 3.9 km/h 31.5 km/h 88 % 0.51 mm 0.0 W/m2 -RA
02:10 7.7 °C 5.8 °C 1012.1 hPa West 1.9 km/h 25.9 km/h 88 % 0.51 mm 0.0 W/m2 -RA
02:15 7.6 °C 5.6 °C 1012.1 hPa Calm   13 km/h 87 % 0.51 mm 0.0 W/m2 -RA
02:20 7.5 °C 5.5 °C 1012.1 hPa WSW 8.2 km/h 16.7 km/h 87 % 0.25 mm 0.0 W/m2 -RA
02:25 7.4 °C 5.3 °C 1012.1 hPa West 3.7 km/h 16.7 km/h 86 % 0.25 mm 0.0 W/m2 -RA
02:30 7.4 °C 5.1 °C 1012.1 hPa West 1.9 km/h 16.7 km/h 85 % 0.25 mm 0.0 W/m2 -RA
02:35 7.4 °C 4.9 °C 1012.4 hPa WSW 0.5 km/h 14.8 km/h 84 % 0 mm 0.0 W/m2 -RA
02:40 7.4 °C 4.8 °C 1012.4 hPa West 1.6 km/h 9.3 km/h 84 % 0 mm 0.0 W/m2 -RA
02:45 7.4 °C 4.7 °C 1012.4 hPa WSW 2.9 km/h 14.8 km/h 83 % 0 mm 0.0 W/m2 -RA
02:50 7.4 °C 4.6 °C 1012.4 hPa SW 7.1 km/h 18.5 km/h 82 % 0 mm 0.0 W/m2 -RA
02:55 7.4 °C 4.4 °C 1012.4 hPa West 7.1 km/h 18.5 km/h 81 % 0 mm 0.0 W/m2 -RA
02:56 7.4 °C 4.4 °C 1012.4 hPa West 8.4 km/h 18.5 km/h 81 % 0 mm 0.0 W/m2 -RA
03:01 7.5 °C 4.3 °C 1012.4 hPa NW 3.9 km/h 18.5 km/h 80 % 0 mm 0.0 W/m2 OVC
03:06 7.5 °C 4.1 °C 1012.8 hPa West 7.7 km/h 18.5 km/h 79 % 0 mm 0.0 W/m2 OVC
03:11 7.6 °C 3.9 °C 1012.8 hPa West 4.2 km/h 16.7 km/h 78 % 0 mm 0.0 W/m2 OVC
03:16 7.5 °C 3.9 °C 1012.8 hPa West 9.8 km/h 18.5 km/h 78 % 0 mm 0.0 W/m2 OVC
03:21 7.4 °C 3.8 °C 1012.8 hPa WNW 8.9 km/h 18.5 km/h 78 % 0 mm 0.0 W/m2 OVC
03:26 7.4 °C 3.7 °C 1012.8 hPa West 7.9 km/h 22.2 km/h 77 % 0 mm 0.0 W/m2 OVC
03:31 7.4 °C 3.5 °C 1012.8 hPa WNW 13.4 km/h 22.2 km/h 76 % 0 mm 0.0 W/m2 OVC
03:36 7.3 °C 2.8 °C 1012.8 hPa NW 17.1 km/h 31.5 km/h 73 % 0 mm 0.0 W/m2 OVC
03:41 7.2 °C 2.1 °C 1012.8 hPa NW 22.9 km/h 31.5 km/h 70 % 0 mm 0.0 W/m2 OVC
03:47 7.1 °C 1.4 °C 1013.1 hPa West 17.7 km/h 33.3 km/h 67 % 0 mm 0.0 W/m2 OVC
03:52 7.1 °C 1.2 °C 1013.1 hPa WNW 17.5 km/h 33.3 km/h 66 % 0 mm 0.0 W/m2 OVC
03:57 7 °C 1.1 °C 1013.1 hPa WNW 9.7 km/h 33.3 km/h 66 % 0 mm 0.0 W/m2 OVC
04:02 6.8 °C 1.1 °C 1013.4 hPa WNW 10.3 km/h 27.8 km/h 67 % 0 mm 0.0 W/m2 BKN
04:07 6.6 °C 0.7 °C 1013.4 hPa WNW 14.2 km/h 27.8 km/h 66 % 0 mm 0.0 W/m2 BKN
04:12 6.3 °C -0.1 °C 1013.8 hPa West 20.1 km/h 37 km/h 64 % 0 mm 0.0 W/m2 BKN
04:13 6.2 °C -0.1 °C 1013.8 hPa West 19.6 km/h 37 km/h 64 % 0 mm 0.0 W/m2 BKN
04:18 5.9 °C -1.1 °C 1014.1 hPa WNW 23.5 km/h 37 km/h 61 % 0 mm 0.0 W/m2 BKN
04:23 5.6 °C -1.8 °C 1014.4 hPa West 23 km/h 38.9 km/h 59 % 0 mm 0.0 W/m2 BKN
04:24 5.5 °C -1.9 °C 1014.4 hPa WNW 24.1 km/h 38.9 km/h 59 % 0 mm 0.0 W/m2 BKN
04:34 4.9 °C -2.4 °C 1014.8 hPa WNW 24.5 km/h 42.6 km/h 59 % 0 mm 0.0 W/m2 BKN
04:39 4.8 °C -2.8 °C 1014.8 hPa WNW 22.7 km/h 42.6 km/h 58 % 0 mm 0.0 W/m2 BKN
04:44 4.7 °C -3.1 °C 1014.8 hPa WNW 23 km/h 38.9 km/h 57 % 0 mm 0.0 W/m2 BKN
04:49 4.5 °C -3.8 °C 1014.8 hPa West 20.1 km/h 38.9 km/h 55 % 0 mm 0.0 W/m2 BKN
04:59 4.3 °C -3.5 °C 1015.1 hPa West 18.5 km/h 35.2 km/h 57 % 0 mm 0.0 W/m2 BKN
05:04 4.2 °C -3.6 °C 1015.1 hPa SW 10.9 km/h 33.3 km/h 57 % 0 mm 0.0 W/m2 BKN
05:09 4.1 °C -3.7 °C 1015.1 hPa WNW 17.7 km/h 27.8 km/h 57 % 0 mm 0.0 W/m2 BKN
05:14 4.1 °C -3.7 °C 1015.1 hPa West 21.2 km/h 37 km/h 57 % 0 mm 0.0 W/m2 BKN
05:19 4 °C -4 °C 1015.1 hPa WNW 14.8 km/h 37 km/h 56 % 0 mm 0.0 W/m2 BKN
05:24 3.9 °C -3.9 °C 1015.1 hPa WNW 24 km/h 31.5 km/h 57 % 0 mm 0.0 W/m2 BKN
05:29 3.8 °C -3.9 °C 1015.5 hPa West 12.1 km/h 33.3 km/h 57 % 0 mm 0.0 W/m2 BKN
05:35 3.7 °C -3.8 °C 1015.5 hPa WSW 2.9 km/h 33.3 km/h 58 % 0 mm 0.0 W/m2 BKN
05:40 3.5 °C -3.3 °C 1015.8 hPa WSW 9.8 km/h 24.1 km/h 61 % 0 mm 0.0 W/m2 BKN
05:45 3.4 °C -3.7 °C 1016.1 hPa West 17.1 km/h 27.8 km/h 60 % 0 mm 0.0 W/m2 BKN
05:50 3.4 °C -3.9 °C 1015.8 hPa WNW 10.8 km/h 27.8 km/h 59 % 0 mm 0.0 W/m2 BKN
05:55 3.3 °C -3.9 °C 1015.8 hPa WNW 11.9 km/h 27.8 km/h 59 % 0 mm 0.0 W/m2 BKN
06:00 3.3 °C -3.8 °C 1016.1 hPa NW 9.5 km/h 18.5 km/h 60 % 0 mm 0.0 W/m2 BKN
06:05 3.2 °C -3.8 °C 1016.1 hPa WNW 8 km/h 19.3 km/h 60 % 0 mm 0.0 W/m2 CLR
06:10 3.2 °C -3.8 °C 1016.1 hPa WNW 13.2 km/h 27.8 km/h 60 % 0 mm 0.0 W/m2 CLR
06:15 3.1 °C -3.9 °C 1016.1 hPa WNW 10.3 km/h 27.8 km/h 60 % 0 mm 0.0 W/m2 CLR
06:20 2.9 °C -4.3 °C 1016.1 hPa WNW 14.5 km/h 27.4 km/h 59 % 0 mm 0.0 W/m2 CLR
06:25 2.8 °C -4.6 °C 1016.5 hPa WNW 14.5 km/h 27.4 km/h 58 % 0 mm 0.0 W/m2 CLR
06:35 2.6 °C -4.8 °C 1016.5 hPa WNW 9.7 km/h 22.5 km/h 58 % 0 mm 0.0 W/m2 CLR
06:40 2.4 °C -5 °C 1016.5 hPa NW 8.9 km/h 24.1 km/h 58 % 0 mm 0.0 W/m2 CLR
06:45 2.3 °C -4.9 °C 1016.5 hPa WNW 7.4 km/h 24.1 km/h 59 % 0 mm 0.0 W/m2 CLR
06:50 2.2 °C -4.7 °C 1016.5 hPa West 1.6 km/h 16.1 km/h 60 % 0 mm 0.0 W/m2 CLR
06:55 2.2 °C -4.8 °C 1016.5 hPa WNW 16.1 km/h 27.4 km/h 60 % 0 mm 0.0 W/m2 CLR
07:00 2.1 °C -5.1 °C 1016.8 hPa WNW 13.4 km/h 29.6 km/h 59 % 0 mm 0.0 W/m2 CLR
07:05 2 °C -5.4 °C 1016.8 hPa WNW 14.5 km/h 32.2 km/h 58 % 0 mm 0.0 W/m2 CLR
07:10 1.9 °C -5.7 °C 1017.2 hPa WNW 20.9 km/h 29 km/h 57 % 0 mm 0.0 W/m2 CLR
07:15 1.9 °C -5.7 °C 1017.2 hPa NW 7.2 km/h 29.6 km/h 57 % 0 mm 0.0 W/m2 CLR
07:20 1.8 °C -6 °C 1017.2 hPa WNW 11.3 km/h 19.3 km/h 56 % 0 mm 0.0 W/m2 CLR
07:25 1.7 °C -6.1 °C 1017.2 hPa WNW 9.7 km/h 25.7 km/h 56 % 0 mm 7.0 W/m2 CLR
07:30 1.7 °C -5.9 °C 1017.2 hPa WNW 4.3 km/h 25.9 km/h 57 % 0 mm 11.0 W/m2 CLR
07:35 1.6 °C -6 °C 1017.2 hPa WNW 12.9 km/h 19.3 km/h 57 % 0 mm 14.0 W/m2 CLR
07:40 1.7 °C -5.9 °C 1017.2 hPa WNW 8.9 km/h 20.4 km/h 57 % 0 mm 19.0 W/m2 CLR
07:45 1.6 °C -5.8 °C 1017.2 hPa WNW 7.6 km/h 20.4 km/h 58 % 0 mm 25.0 W/m2 CLR
07:50 1.6 °C -5.8 °C 1017.5 hPa Calm   18.5 km/h 58 % 0 mm 26.0 W/m2 CLR
07:55 1.5 °C -5.9 °C 1017.2 hPa WNW 1.8 km/h 18.5 km/h 58 % 0 mm 32.0 W/m2 CLR
08:00 1.5 °C -5.7 °C 1017.5 hPa WNW 6.4 km/h 13 km/h 59 % 0 mm 44.0 W/m2 CLR
08:05 1.5 °C -5.7 °C 1017.5 hPa West 1 km/h 13 km/h 59 % 0 mm 49.0 W/m2 CLR
08:10 1.5 °C -5.7 °C 1017.5 hPa West 6.9 km/h 16.7 km/h 59 % 0 mm 53.0 W/m2 CLR
08:15 1.5 °C -5.4 °C 1017.5 hPa WNW 1.3 km/h 16.7 km/h 60 % 0 mm 58.0 W/m2 CLR
08:20 1.6 °C -5.3 °C 1017.5 hPa Calm   18.5 km/h 60 % 0 mm 62.0 W/m2 CLR
08:25 1.6 °C -5.1 °C 1017.5 hPa Calm   18.5 km/h 61 % 0 mm 67.0 W/m2 CLR
08:30 1.6 °C -5.1 °C 1017.5 hPa WNW 2.9 km/h 11.1 km/h 61 % 0 mm 72.0 W/m2 CLR
08:35 1.6 °C -4.9 °C 1017.8 hPa WNW 4.2 km/h 11.1 km/h 62 % 0 mm 69.0 W/m2 CLR
08:40 1.5 °C -5.2 °C 1017.8 hPa West 6 km/h 16.7 km/h 61 % 0 mm 62.0 W/m2 CLR
08:45 1.4 °C -5.3 °C 1017.8 hPa West 2.7 km/h 16.7 km/h 61 % 0 mm 72.0 W/m2 CLR
08:46 1.4 °C -5.3 °C 1017.8 hPa West 3.7 km/h 16.7 km/h 61 % 0 mm 72.0 W/m2 CLR
08:51 1.5 °C -5.4 °C 1017.8 hPa SW 11.9 km/h 16.7 km/h 60 % 0 mm 74.0 W/m2 CLR
08:56 1.5 °C -5.4 °C 1017.8 hPa West 7.7 km/h 20.4 km/h 60 % 0 mm 77.0 W/m2 CLR
09:01 1.5 °C -5.4 °C 1017.8 hPa West 4.5 km/h 20.4 km/h 60 % 0 mm 79.0 W/m2 CLR
09:06 1.5 °C -5.2 °C 1017.8 hPa SW 3.4 km/h 16.7 km/h 61 % 0 mm 83.0 W/m2 CLR
09:11 1.4 °C -5.1 °C 1017.8 hPa WSW 1.3 km/h 16.7 km/h 62 % 0 mm 102.0 W/m2 CLR
09:16 1.4 °C -5.1 °C 1017.8 hPa West 4.5 km/h 16.7 km/h 62 % 0 mm 135.0 W/m2 CLR
09:21 1.5 °C -5.2 °C 1018.2 hPa West 1.9 km/h 16.7 km/h 61 % 0 mm 171.0 W/m2 CLR
09:26 1.7 °C -5.3 °C 1018.2 hPa West 6.1 km/h 16.7 km/h 60 % 0 mm 227.0 W/m2 CLR
09:31 2 °C -4.7 °C 1017.8 hPa WSW 1.4 km/h 16.7 km/h 61 % 0 mm 246.0 W/m2 CLR
09:36 2.3 °C -4.9 °C 1017.8 hPa West 4.2 km/h 16.7 km/h 59 % 0 mm 248.0 W/m2 CLR
09:41 2.4 °C -5.2 °C 1018.2 hPa West 4.5 km/h 16.7 km/h 57 % 0 mm 255.0 W/m2 CLR
09:46 2.6 °C -5.3 °C 1018.2 hPa West 15.1 km/h 20.4 km/h 56 % 0 mm 200.0 W/m2 CLR
09:51 2.7 °C -5.2 °C 1018.2 hPa West 15.8 km/h 29.6 km/h 56 % 0 mm 218.0 W/m2 CLR
09:56 2.8 °C -5.4 °C 1018.2 hPa NNW 7.9 km/h 29.6 km/h 55 % 0 mm 188.0 W/m2 CLR
10:01 2.8 °C -5.3 °C 1018.2 hPa WSW 6 km/h 18.5 km/h 55 % 0 mm 160.0 W/m2 CLR
10:06 2.7 °C -5.9 °C 1017.8 hPa West 15.6 km/h 22.2 km/h 53 % 0 mm 160.0 W/m2 CLR
10:11 2.6 °C -6.1 °C 1018.2 hPa West 0.2 km/h 25.9 km/h 53 % 0 mm 141.0 W/m2 CLR
10:16 2.5 °C -6.1 °C 1018.2 hPa West 13.7 km/h 25.9 km/h 53 % 0 mm 113.0 W/m2 CLR
10:21 2.3 °C -6.3 °C 1018.2 hPa NW 5.6 km/h 27.8 km/h 53 % 0 mm 120.0 W/m2 CLR
10:26 2.3 °C -6.1 °C 1018.2 hPa West 12.2 km/h 27.8 km/h 54 % 0 mm 179.0 W/m2 CLR
10:31 2.4 °C -6 °C 1018.2 hPa WSW 11.9 km/h 24.1 km/h 54 % 0 mm 156.0 W/m2 CLR
10:36 2.5 °C -6.1 °C 1018.2 hPa West 13.4 km/h 24.1 km/h 53 % 0 mm 258.0 W/m2 CLR
10:41 2.7 °C -5.9 °C 1017.8 hPa West 6.8 km/h 27.8 km/h 53 % 0 mm 496.0 W/m2 CLR
10:46 3 °C -6.4 °C 1018.2 hPa West 15.1 km/h 27.8 km/h 50 % 0 mm 376.0 W/m2 CLR
10:51 3 °C -6.4 °C 1018.2 hPa WSW 23 km/h 27.8 km/h 50 % 0 mm 234.0 W/m2 CLR
10:56 3.1 °C -6.6 °C 1017.8 hPa WNW 14.2 km/h 40.7 km/h 49 % 0 mm 380.0 W/m2 CLR
11:01 3.3 °C -6.4 °C 1017.5 hPa West 14.2 km/h 40.7 km/h 49 % 0 mm 283.0 W/m2 CLR
11:06 3.4 °C -6.6 °C 1017.2 hPa West 16.6 km/h 27.8 km/h 48 % 0 mm 341.0 W/m2 CLR
11:11 3.5 °C -6.8 °C 1017.5 hPa WSW 15.8 km/h 27.8 km/h 47 % 0 mm 422.0 W/m2 CLR
11:16 3.8 °C -7.1 °C 1017.2 hPa WSW 14.8 km/h 31.5 km/h 45 % 0 mm 392.0 W/m2 CLR
11:21 3.8 °C -7.4 °C 1017.2 hPa West 16.1 km/h 31.5 km/h 44 % 0 mm 250.0 W/m2 CLR
11:26 3.7 °C -7.7 °C 1017.2 hPa WNW 12.6 km/h 35.2 km/h 43 % 0 mm 499.0 W/m2 CLR
11:31 3.7 °C -8.1 °C 1017.2 hPa WSW 12.4 km/h 35.2 km/h 42 % 0 mm 320.0 W/m2 CLR
11:36 3.4 °C -8.3 °C 1017.2 hPa NW 19 km/h 31.5 km/h 42 % 0 mm 359.0 W/m2 CLR
11:41 3.6 °C -8.1 °C 1016.8 hPa West 17.7 km/h 29.6 km/h 42 % 0 mm 381.0 W/m2 CLR
11:46 3.7 °C -8.4 °C 1017.2 hPa WNW 14.3 km/h 29.6 km/h 41 % 0 mm 413.0 W/m2 CLR
11:52 3.9 °C -7.9 °C 1016.8 hPa West 20.4 km/h 29.6 km/h 42 % 0 mm 432.0 W/m2 CLR
11:57 3.8 °C -8.3 °C 1016.8 hPa West 13.8 km/h 33.3 km/h 41 % 0 mm 471.0 W/m2 CLR
12:02 3.9 °C -8.5 °C 1016.8 hPa West 17.1 km/h 33.3 km/h 40 % 0 mm 468.0 W/m2 CLR
12:07 3.9 °C -8.1 °C 1016.8 hPa SW 4.7 km/h 31.5 km/h 41 % 0 mm 462.0 W/m2 CLR
12:12 4 °C -8.1 °C 1016.8 hPa West 17.5 km/h 31.5 km/h 41 % 0 mm 461.0 W/m2 CLR
12:17 4.2 °C -7.9 °C 1016.8 hPa SW 15 km/h 31.5 km/h 41 % 0 mm 459.0 W/m2 CLR
12:22 4.2 °C -7.9 °C 1016.8 hPa SW 9.7 km/h 29.6 km/h 41 % 0 mm 455.0 W/m2 CLR
12:27 4.4 °C -7.7 °C 1016.5 hPa West 17.7 km/h 31.5 km/h 41 % 0 mm 452.0 W/m2 CLR
12:32 4.5 °C -7.9 °C 1016.5 hPa WSW 13.5 km/h 31.5 km/h 40 % 0 mm 450.0 W/m2 CLR
12:37 4.4 °C -7.7 °C 1016.1 hPa West 8.9 km/h 31.5 km/h 41 % 0 mm 443.0 W/m2 CLR
12:42 4.4 °C -8.1 °C 1016.1 hPa WSW 3.1 km/h 25.9 km/h 40 % 0 mm 441.0 W/m2 CLR
12:47 4.5 °C -7.9 °C 1016.1 hPa West 18 km/h 24.1 km/h 40 % 0 mm 436.0 W/m2 CLR
12:52 4.6 °C -7.6 °C 1016.1 hPa WSW 9.5 km/h 24.1 km/h 41 % 0 mm 432.0 W/m2 CLR
12:57 4.7 °C -7.8 °C 1016.1 hPa WSW 14.2 km/h 24.1 km/h 40 % 0 mm 427.0 W/m2 CLR
13:02 4.6 °C -7.8 °C 1016.1 hPa WSW 7.1 km/h 31.5 km/h 40 % 0 mm 415.0 W/m2 CLR
13:07 4.8 °C -7.4 °C 1016.1 hPa WNW 7.1 km/h 31.5 km/h 41 % 0 mm 343.0 W/m2 CLR
13:12 4.6 °C -8.2 °C 1015.8 hPa WNW 15 km/h 29.6 km/h 39 % 0 mm 264.0 W/m2 CLR
13:17 4.6 °C -7.6 °C 1015.8 hPa WSW 14.5 km/h 29.6 km/h 41 % 0 mm 237.0 W/m2 CLR
13:22 4.6 °C -7.8 °C 1015.8 hPa West 10.5 km/h 27.8 km/h 40 % 0 mm 100.0 W/m2 CLR
13:23 4.6 °C -7.8 °C 1015.8 hPa WSW 11.3 km/h 27.8 km/h 40 % 0 mm 100.0 W/m2 CLR
13:28 4.4 °C -8.1 °C 1015.8 hPa NW 8 km/h 27.8 km/h 40 % 0 mm 193.0 W/m2 CLR
13:33 4.4 °C -7.7 °C 1015.8 hPa West 9.5 km/h 24.1 km/h 41 % 0 mm 285.0 W/m2 CLR
13:37 4.8 °C -7.4 °C 1015.8 hPa WSW 2.7 km/h 20.4 km/h 41 % 0 mm 345.0 W/m2 CLR
13:42 5 °C -7.5 °C 1015.8 hPa WNW 7.7 km/h 20.4 km/h 40 % 0 mm 373.0 W/m2 CLR
13:47 5.2 °C -7.3 °C 1015.8 hPa SW 14.5 km/h 22.2 km/h 40 % 0 mm 371.0 W/m2 CLR
13:53 5.2 °C -7.3 °C 1015.5 hPa NW 8.5 km/h 29.6 km/h 40 % 0 mm 355.0 W/m2 CLR
13:58 5.3 °C -7.6 °C 1015.8 hPa West 13.7 km/h 29.6 km/h 39 % 0 mm 330.0 W/m2 CLR
14:03 5.2 °C -7.6 °C 1015.8 hPa WNW 14.6 km/h 24.1 km/h 39 % 0 mm 243.0 W/m2 CLR
14:08 5.3 °C -7.3 °C 1015.8 hPa WSW 9.7 km/h 25.9 km/h 40 % 0 mm 225.0 W/m2 CLR
14:13 5.2 °C -7.3 °C 1015.8 hPa West 12.4 km/h 25.9 km/h 40 % 0 mm 148.0 W/m2 CLR
14:18 5 °C -7.5 °C 1016.1 hPa West 10.5 km/h 22.2 km/h 40 % 0 mm 139.0 W/m2 CLR
14:23 4.9 °C -7.3 °C 1015.8 hPa SW 6.3 km/h 22.2 km/h 41 % 0 mm 102.0 W/m2 CLR
14:28 4.8 °C -7 °C 1015.8 hPa WSW 10.9 km/h 18.5 km/h 42 % 0 mm 232.0 W/m2 CLR
14:33 4.7 °C -6.8 °C 1015.8 hPa SSW 2.9 km/h 18.5 km/h 43 % 0 mm 130.0 W/m2 CLR
14:38 4.5 °C -7 °C 1015.8 hPa SSW 6.1 km/h 18.5 km/h 43 % 0 mm 125.0 W/m2 CLR
14:43 4.3 °C -6.9 °C 1015.8 hPa SW 1.3 km/h 14.8 km/h 44 % 0 mm 97.0 W/m2 CLR
14:48 4.3 °C -6.9 °C 1015.8 hPa West 6.4 km/h 18.5 km/h 44 % 0 mm 91.0 W/m2 CLR
14:53 4.2 °C -6.9 °C 1015.8 hPa SW 5.5 km/h 18.5 km/h 44 % 0 mm 105.0 W/m2 CLR
14:58 4.2 °C -6.9 °C 1015.8 hPa WSW 10.9 km/h 18.5 km/h 44 % 0 mm 90.0 W/m2 CLR
15:03 4.2 °C -6.7 °C 1015.5 hPa WSW 0.8 km/h 18.5 km/h 45 % 0 mm 72.0 W/m2 CLR
15:08 4.2 °C -6.4 °C 1015.8 hPa WSW 4.7 km/h 18.5 km/h 46 % 0 mm 70.0 W/m2 CLR
15:13 4.1 °C -6.5 °C 1015.8 hPa WSW 3.5 km/h 16.7 km/h 46 % 0 mm 76.0 W/m2 CLR
15:18 4.1 °C -6.2 °C 1015.8 hPa WSW 0.3 km/h 18.5 km/h 47 % 0 mm 69.0 W/m2 CLR
15:23 4.1 °C -6.6 °C 1015.8 hPa WSW 6.6 km/h 22.2 km/h 46 % 0 mm 77.0 W/m2 CLR
15:28 4.1 °C -6.3 °C 1015.8 hPa West 2.9 km/h 22.2 km/h 47 % 0 mm 56.0 W/m2 CLR
15:33 4.1 °C -6.3 °C 1015.8 hPa SW 0.6 km/h 20.4 km/h 47 % 0 mm 58.0 W/m2 CLR
15:38 3.9 °C -6.4 °C 1015.8 hPa WSW 1.6 km/h 16.7 km/h 47 % 0 mm 53.0 W/m2 CLR
15:43 3.9 °C -6.4 °C 1016.1 hPa SW 2.1 km/h 16.7 km/h 47 % 0 mm 51.0 W/m2 CLR
15:48 3.8 °C -6.2 °C 1016.1 hPa SW 2.3 km/h 16.7 km/h 48 % 0 mm 46.0 W/m2 CLR
15:53 3.8 °C -5.9 °C 1015.8 hPa SW 0.5 km/h 9.3 km/h 49 % 0 mm 42.0 W/m2 CLR
15:58 3.7 °C -6 °C 1016.1 hPa SW 1.1 km/h 9.3 km/h 49 % 0 mm 33.0 W/m2 CLR
16:03 3.7 °C -6.1 °C 1016.1 hPa SW 0.3 km/h 9.3 km/h 49 % 0 mm 28.0 W/m2 CLR
16:08 3.6 °C -6.1 °C 1016.1 hPa Calm   9.3 km/h 49 % 0 mm 25.0 W/m2 CLR
16:13 3.6 °C -5.9 °C 1016.1 hPa Calm   5.6 km/h 50 % 0 mm 18.0 W/m2 CLR
16:18 3.5 °C -5.9 °C 1016.1 hPa Calm   5.6 km/h 50 % 0 mm 12.0 W/m2 CLR
16:23 3.4 °C -6.1 °C 1016.1 hPa SW 0.2 km/h 1.9 km/h 50 % 0 mm 9.0 W/m2 CLR
16:24 3.4 °C -6.1 °C 1016.1 hPa SW 0.2 km/h 1.9 km/h 50 % 0 mm 9.0 W/m2 CLR
16:29 3.3 °C -5.8 °C 1016.1 hPa Calm   1.9 km/h 51 % 0 mm 7.0 W/m2 CLR
16:34 3.2 °C -5.9 °C 1015.8 hPa Calm   1.9 km/h 51 % 0 mm 0.0 W/m2 CLR
16:39 3.1 °C -5.8 °C 1015.8 hPa Calm     52 % 0 mm 0.0 W/m2 CLR
16:44 2.9 °C -5.9 °C 1015.8 hPa Calm     52 % 0 mm 0.0 W/m2 CLR
16:49 2.8 °C -6.1 °C 1015.8 hPa Calm     52 % 0 mm 0.0 W/m2 CLR
16:54 2.7 °C -6.2 °C 1015.8 hPa Calm     52 % 0 mm 0.0 W/m2 CLR
16:59 2.7 °C -5.9 °C 1016.1 hPa Calm     53 % 0 mm 0.0 W/m2 CLR
17:04 2.6 °C -6.3 °C 1016.1 hPa Calm     52 % 0 mm 0.0 W/m2 CLR
17:09 2.6 °C -6.3 °C 1016.1 hPa Calm     52 % 0 mm 0.0 W/m2 CLR
17:14 2.5 °C -6.1 °C 1016.1 hPa Calm     53 % 0 mm 0.0 W/m2 CLR
17:19 2.4 °C -6.2 °C 1016.1 hPa Calm     53 % 0 mm 0.0 W/m2 CLR
17:24 2.4 °C -6.2 °C 1016.1 hPa Calm     53 % 0 mm 0.0 W/m2 CLR
17:29 2.4 °C -6.2 °C 1016.1 hPa Calm     53 % 0 mm 0.0 W/m2 CLR
17:34 2.3 °C -6.3 °C 1016.1 hPa Calm     53 % 0 mm 0.0 W/m2 CLR
17:39 2.4 °C -6.2 °C 1016.1 hPa Calm     53 % 0 mm 0.0 W/m2 CLR
17:44 2.3 °C -6.3 °C 1016.1 hPa Calm   3.7 km/h 53 % 0 mm 0.0 W/m2 CLR
17:49 2.3 °C -6.3 °C 1016.5 hPa SSW 0.2 km/h 5.6 km/h 53 % 0 mm 0.0 W/m2 CLR
17:54 2.2 °C -6.2 °C 1016.1 hPa Calm   5.6 km/h 54 % 0 mm 0.0 W/m2 CLR
17:59 2.2 °C -6.2 °C 1016.1 hPa Calm   3.7 km/h 54 % 0 mm 0.0 W/m2 CLR
18:04 2.2 °C -6.2 °C 1016.1 hPa Calm     54 % 0 mm 0.0 W/m2 CLR
18:09 2.1 °C -6 °C 1016.1 hPa Calm     55 % 0 mm 0.0 W/m2 CLR
18:14 2 °C -5.9 °C 1016.1 hPa Calm     56 % 0 mm 0.0 W/m2 CLR
18:19 1.9 °C -5.9 °C 1015.8 hPa Calm     56 % 0 mm 0.0 W/m2 CLR
18:25 1.8 °C -6 °C 1016.1 hPa Calm     56 % 0 mm 0.0 W/m2 CLR
18:30 1.9 °C -6 °C 1016.1 hPa Calm     56 % 0 mm 0.0 W/m2 CLR
18:35 1.9 °C -5.9 °C 1016.1 hPa Calm     56 % 0 mm 0.0 W/m2 CLR
18:40 2.1 °C -6.1 °C 1016.1 hPa Calm   5.6 km/h 55 % 0 mm 0.0 W/m2 CLR
18:45 2.2 °C -5.9 °C 1016.1 hPa SSW 1.4 km/h 5.6 km/h 55 % 0 mm 0.0 W/m2 CLR
18:50 2.2 °C -6.2 °C 1016.1 hPa SSW 0.5 km/h 5.6 km/h 54 % 0 mm 0.0 W/m2 CLR
18:55 2.3 °C -6.1 °C 1016.1 hPa Calm   5.6 km/h 54 % 0 mm 0.0 W/m2 CLR
19:00 2.3 °C -6.1 °C 1016.1 hPa Calm   5.6 km/h 54 % 0 mm 0.0 W/m2 CLR
19:05 2.3 °C -6.1 °C 1016.5 hPa Calm   3.7 km/h 54 % 0 mm 0.0 W/m2 CLR
19:10 2.2 °C -5.9 °C 1016.5 hPa Calm   1.9 km/h 55 % 0 mm 0.0 W/m2 CLR
19:15 2.1 °C -5.8 °C 1016.5 hPa Calm     56 % 0 mm 0.0 W/m2 CLR
19:20 2.1 °C -5.8 °C 1016.5 hPa Calm     56 % 0 mm 0.0 W/m2 CLR
19:25 1.9 °C -5.9 °C 1016.5 hPa Calm     56 % 0 mm 0.0 W/m2 CLR
19:30 2 °C -5.9 °C 1016.5 hPa Calm     56 % 0 mm 0.0 W/m2 CLR
19:35 1.9 °C -5.7 °C 1016.5 hPa Calm     57 % 0 mm 0.0 W/m2 CLR
19:40 1.8 °C -5.8 °C 1016.1 hPa Calm     57 % 0 mm 0.0 W/m2 CLR
19:45 1.8 °C -5.8 °C 1016.1 hPa Calm     57 % 0 mm 0.0 W/m2 CLR
19:50 1.8 °C -5.6 °C 1016.1 hPa Calm     58 % 0 mm 0.0 W/m2 CLR
19:55 1.7 °C -5.7 °C 1016.1 hPa Calm     58 % 0 mm 0.0 W/m2 CLR
20:00 1.7 °C -5.7 °C 1016.5 hPa Calm     58 % 0 mm 0.0 W/m2 CLR
20:01 1.7 °C -5.7 °C 1016.5 hPa Calm     58 % 0 mm 0.0 W/m2 CLR
20:06 1.5 °C -5.7 °C 1016.5 hPa Calm     59 % 0 mm 0.0 W/m2 CLR
20:11 1.3 °C -5.6 °C 1016.5 hPa Calm     60 % 0 mm 0.0 W/m2 CLR
20:16 1.2 °C -5.6 °C 1016.1 hPa Calm     61 % 0 mm 0.0 W/m2 CLR
20:21 1.1 °C -5.4 °C 1016.5 hPa Calm     62 % 0 mm 0.0 W/m2 CLR
20:26 0.9 °C -5.3 °C 1016.1 hPa Calm     63 % 0 mm 0.0 W/m2 CLR
20:31 0.8 °C -5.3 °C 1016.5 hPa Calm     64 % 0 mm 0.0 W/m2 CLR
20:36 0.8 °C -5.4 °C 1016.5 hPa Calm     63 % 0 mm 0.0 W/m2 CLR
20:41 0.6 °C -5.2 °C 1016.5 hPa Calm     65 % 0 mm 0.0 W/m2 CLR
20:46 0.5 °C -5.3 °C 1016.1 hPa Calm     65 % 0 mm 0.0 W/m2 CLR
20:51 0.6 °C -5.2 °C 1016.1 hPa Calm     65 % 0 mm 0.0 W/m2 CLR
20:56 0.5 °C -5.1 °C 1016.5 hPa Calm     66 % 0 mm 0.0 W/m2 CLR
21:01 0.4 °C -5.2 °C 1016.5 hPa Calm     66 % 0 mm 0.0 W/m2 CLR
21:06 0.5 °C -5.1 °C 1016.5 hPa Calm     66 % 0 mm 0.0 W/m2 SCT
21:11 0.4 °C -5.1 °C 1016.5 hPa Calm     67 % 0 mm 0.0 W/m2 SCT
21:16 0.3 °C -4.9 °C 1016.5 hPa Calm     68 % 0 mm 0.0 W/m2 SCT
21:21 0.2 °C -5 °C 1016.5 hPa Calm     68 % 0 mm 0.0 W/m2 SCT
21:26 0.1 °C -5.1 °C 1016.1 hPa Calm     68 % 0 mm 0.0 W/m2 SCT
21:31 -0.1 °C -5.1 °C 1016.1 hPa Calm     69 % 0 mm 0.0 W/m2 SCT
21:36 -0.1 °C -5.1 °C 1016.1 hPa Calm     69 % 0 mm 0.0 W/m2 SCT
21:41 -0.1 °C -5.1 °C 1016.1 hPa Calm     69 % 0 mm 0.0 W/m2 SCT
21:46 -0.1 °C -5.1 °C 1016.1 hPa Calm     69 % 0 mm 0.0 W/m2 SCT
21:51 -0.2 °C -5 °C 1016.1 hPa Calm     70 % 0 mm 0.0 W/m2 SCT
21:56 -0.2 °C -5.1 °C 1016.1 hPa Calm     70 % 0 mm 0.0 W/m2 SCT
22:01 -0.2 °C -5.2 °C 1016.1 hPa Calm     69 % 0 mm 0.0 W/m2 CLR
22:06 -0.2 °C -5.2 °C 1016.1 hPa Calm     69 % 0 mm 0.0 W/m2 CLR
22:12 -0.2 °C -5.2 °C 1016.1 hPa Calm     69 % 0 mm 0.0 W/m2 CLR
22:17 -0.4 °C -5.2 °C 1016.1 hPa Calm     70 % 0 mm 0.0 W/m2 CLR
22:22 -0.6 °C -5.2 °C 1016.5 hPa Calm     71 % 0 mm 0.0 W/m2 CLR
22:24 -0.6 °C -5.2 °C 1016.5 hPa Calm     71 % 0 mm 0.0 W/m2 CLR
22:29 -0.7 °C -5.3 °C 1016.5 hPa Calm     71 % 0 mm 0.0 W/m2 CLR
22:34 -0.8 °C -5.2 °C 1016.5 hPa Calm     72 % 0 mm 0.0 W/m2 CLR
22:39 -0.8 °C -5.2 °C 1016.5 hPa Calm     72 % 0 mm 0.0 W/m2 CLR
22:44 -0.7 °C -5.2 °C 1016.5 hPa Calm     72 % 0 mm 0.0 W/m2 CLR
22:49 -0.8 °C -5.2 °C 1016.5 hPa Calm     72 % 0 mm 0.0 W/m2 CLR
22:54 -0.9 °C -5.3 °C 1016.5 hPa Calm     72 % 0 mm 0.0 W/m2 CLR
22:59 -1 °C -5.2 °C 1016.5 hPa Calm     73 % 0 mm 0.0 W/m2 CLR
23:04 -1.1 °C -5.3 °C 1016.1 hPa Calm     73 % 0 mm 0.0 W/m2 CLR
23:09 -1.2 °C -5.2 °C 1016.5 hPa Calm     74 % 0 mm 0.0 W/m2 CLR
23:14 -1.2 °C -5.1 °C 1016.1 hPa Calm     75 % 0 mm 0.0 W/m2 CLR
23:19 -1.3 °C -5 °C 1016.5 hPa Calm     76 % 0 mm 0.0 W/m2 CLR
23:24 -1.4 °C -5.1 °C 1016.5 hPa Calm     76 % 0 mm 0.0 W/m2 CLR
23:29 -1.4 °C -5.1 °C 1016.5 hPa Calm     76 % 0 mm 0.0 W/m2 CLR
23:34 -1.5 °C -5.2 °C 1016.5 hPa Calm     76 % 0 mm 0.0 W/m2 CLR
23:39 -1.6 °C -5.1 °C 1016.5 hPa Calm     77 % 0 mm 0.0 W/m2 CLR
23:44 -1.5 °C -5 °C 1016.5 hPa Calm     77 % 0 mm 0.0 W/m2 CLR
23:49 -1.4 °C -4.8 °C 1016.5 hPa Calm     78 % 0 mm 0.0 W/m2 CLR
23:55 -1.4 °C -4.7 °C 1016.5 hPa Calm     78 % 0 mm 0.0 W/m2 CLR
Air Products Campus Weather
Compliments of Weather Underground - 3.5 mb